createdAt,value
2022-10-13T00:00:47.759Z,1.52
2022-10-13T00:02:49.647Z,1.00
2022-10-13T00:04:51.279Z,1.48
2022-10-13T00:06:52.898Z,1.58
2022-10-13T00:08:55.041Z,1.73
2022-10-13T00:10:56.814Z,1.30
2022-10-13T00:12:58.767Z,1.20
2022-10-13T00:15:00.427Z,1.40
2022-10-13T00:17:02.086Z,1.40
2022-10-13T00:19:06.069Z,1.50
2022-10-13T00:21:13.269Z,1.92
2022-10-13T00:23:16.135Z,1.50
2022-10-13T00:25:17.941Z,1.50
2022-10-13T00:27:20.217Z,1.63
2022-10-13T00:29:22.061Z,1.48
2022-10-13T00:31:28.005Z,1.67
2022-10-13T00:33:29.862Z,1.30
2022-10-13T00:35:31.697Z,1.40
2022-10-13T00:37:33.408Z,1.48
2022-10-13T00:39:35.031Z,1.55
2022-10-13T00:41:36.776Z,1.83
2022-10-13T00:43:53.848Z,1.40
2022-10-13T00:45:55.467Z,1.52
2022-10-13T00:48:00.790Z,1.30
2022-10-13T00:50:03.103Z,2.10
2022-10-13T00:52:04.806Z,2.03
2022-10-13T00:54:09.734Z,2.10
2022-10-13T00:56:14.117Z,1.70
2022-10-13T00:58:19.542Z,1.90
2022-10-13T01:00:23.900Z,1.92
2022-10-13T01:02:31.584Z,1.92
2022-10-13T01:04:45.273Z,1.95
2022-10-13T01:06:46.921Z,2.05
2022-10-13T01:08:48.673Z,1.45
2022-10-13T01:11:05.655Z,1.55
2022-10-13T01:13:26.119Z,1.40
2022-10-13T01:16:01.594Z,1.60
2022-10-13T01:18:15.182Z,1.33
2022-10-13T01:20:54.635Z,1.60
2022-10-13T01:23:30.241Z,1.60
2022-10-13T01:26:33.306Z,1.80
2022-10-13T01:29:13.891Z,1.65
2022-10-13T01:31:40.338Z,1.85
2022-10-13T01:34:07.390Z,2.05
2022-10-13T01:36:26.807Z,1.70
2022-10-13T01:38:50.299Z,1.92
2022-10-13T01:41:05.670Z,2.25
2022-10-13T01:43:30.774Z,1.83
2022-10-13T01:45:38.808Z,2.08
2022-10-13T01:47:42.336Z,2.22
2022-10-13T01:49:45.253Z,2.47
2022-10-13T01:51:49.809Z,1.50
2022-10-13T01:53:51.658Z,1.88
2022-10-13T01:55:57.255Z,2.08
2022-10-13T01:57:59.004Z,1.70
2022-10-13T02:00:06.558Z,2.30
2022-10-13T02:02:22.526Z,1.95
2022-10-13T02:04:37.527Z,2.42
2022-10-13T02:06:52.076Z,2.20
2022-10-13T02:09:13.815Z,1.95
2022-10-13T02:11:21.569Z,2.65
2022-10-13T02:13:26.706Z,2.53
2022-10-13T02:15:35.359Z,2.13
2022-10-13T02:17:37.335Z,2.15
2022-10-13T02:19:40.248Z,2.50
2022-10-13T02:21:42.460Z,2.60
2022-10-13T02:23:45.454Z,2.30
2022-10-13T02:25:48.569Z,2.33
2022-10-13T02:27:50.662Z,2.53
2022-10-13T02:29:55.020Z,3.10
2022-10-13T02:31:56.733Z,2.55
2022-10-13T02:33:58.458Z,3.55
2022-10-13T02:36:00.112Z,3.60
2022-10-13T02:38:01.749Z,3.33
2022-10-13T02:40:04.037Z,3.92
2022-10-13T02:42:05.990Z,3.17
2022-10-13T02:44:07.837Z,3.20
2022-10-13T02:46:09.591Z,3.50
2022-10-13T02:48:11.232Z,3.40
2022-10-13T02:50:12.891Z,3.80
2022-10-13T02:52:14.818Z,4.30
2022-10-13T02:54:16.458Z,3.45
2022-10-13T02:56:19.281Z,3.72
2022-10-13T02:58:20.977Z,4.30
2022-10-13T03:00:22.700Z,3.80
2022-10-13T03:02:26.002Z,3.80
2022-10-13T03:04:27.700Z,3.72
2022-10-13T03:06:29.318Z,3.33
2022-10-13T03:08:33.324Z,3.13
2022-10-13T03:10:35.137Z,3.78
2022-10-13T03:12:36.875Z,4.00
2022-10-13T03:14:38.494Z,3.70
2022-10-13T03:16:40.161Z,3.65
2022-10-13T03:18:41.778Z,4.03
2022-10-13T03:20:43.461Z,4.07
2022-10-13T03:22:49.532Z,4.38
2022-10-13T03:24:51.971Z,3.95
2022-10-13T03:26:53.607Z,4.00
2022-10-13T03:28:55.203Z,3.97
2022-10-13T03:31:08.332Z,4.25
2022-10-13T03:33:09.970Z,4.72
2022-10-13T03:35:11.646Z,5.22
2022-10-13T03:37:13.385Z,4.80
2022-10-13T03:39:15.132Z,5.05
2022-10-13T03:41:18.832Z,4.68
2022-10-13T03:43:20.435Z,4.78
2022-10-13T03:45:22.141Z,4.82
2022-10-13T03:47:23.811Z,4.53
2022-10-13T03:49:25.587Z,5.25
2022-10-13T03:51:27.252Z,5.28
2022-10-13T03:53:28.927Z,4.70
2022-10-13T03:55:30.534Z,5.40
2022-10-13T03:57:32.197Z,4.82
2022-10-13T03:59:36.785Z,5.53
2022-10-13T04:01:39.636Z,5.10
2022-10-13T04:03:41.322Z,5.35
2022-10-13T04:05:43.673Z,5.82
2022-10-13T04:07:45.299Z,4.88
2022-10-13T04:09:46.971Z,5.50
2022-10-13T04:11:53.045Z,5.43
2022-10-13T04:13:56.825Z,5.70
2022-10-13T04:16:07.044Z,5.40
2022-10-13T04:18:09.224Z,5.03
2022-10-13T04:20:11.242Z,5.63
2022-10-13T04:22:12.853Z,5.13
2022-10-13T04:24:15.046Z,5.93
2022-10-13T04:26:19.664Z,5.63
2022-10-13T04:28:21.418Z,6.03
2022-10-13T04:30:23.058Z,5.82
2022-10-13T04:32:24.941Z,5.95
2022-10-13T04:34:26.551Z,5.90
2022-10-13T04:36:28.323Z,5.82
2022-10-13T04:38:30.041Z,5.88
2022-10-13T04:40:31.878Z,6.45
2022-10-13T04:42:34.106Z,5.80
2022-10-13T04:44:35.749Z,6.20
2022-10-13T04:46:37.362Z,6.57
2022-10-13T04:48:39.211Z,6.55
2022-10-13T04:50:40.996Z,6.68
2022-10-13T04:52:42.616Z,6.20
2022-10-13T04:54:44.535Z,6.32
2022-10-13T04:56:46.378Z,6.88
2022-10-13T04:58:48.213Z,6.60
2022-10-13T05:00:50.204Z,7.20
2022-10-13T05:02:51.908Z,7.45
2022-10-13T05:04:53.559Z,6.80
2022-10-13T05:07:19.209Z,7.05
2022-10-13T05:09:17.670Z,7.78
2022-10-13T05:11:22.526Z,7.13
2022-10-13T05:13:25.164Z,6.82
2022-10-13T05:15:26.935Z,6.40
2022-10-13T05:17:35.019Z,7.00
2022-10-13T05:19:37.204Z,7.50
2022-10-13T05:21:39.127Z,7.93
2022-10-13T05:23:42.135Z,7.60
2022-10-13T05:25:43.816Z,7.90
2022-10-13T05:27:47.326Z,7.20
2022-10-13T05:29:48.945Z,7.55
2022-10-13T05:31:50.591Z,7.85
2022-10-13T05:33:52.901Z,7.78
2022-10-13T05:35:54.531Z,8.27
2022-10-13T05:37:56.237Z,7.28
2022-10-13T05:39:57.897Z,8.23
2022-10-13T05:41:59.557Z,7.85
2022-10-13T05:44:04.276Z,7.32
2022-10-13T05:46:06.564Z,8.40
2022-10-13T05:48:08.347Z,8.40
2022-10-13T05:50:10.240Z,8.82
2022-10-13T05:52:12.924Z,8.13
2022-10-13T05:54:21.659Z,7.60
2022-10-13T05:56:27.206Z,8.50
2022-10-13T05:58:28.866Z,8.48
2022-10-13T06:00:30.637Z,9.18
2022-10-13T06:02:37.867Z,9.50
2022-10-13T06:04:44.450Z,8.52
2022-10-13T06:06:48.508Z,8.60
2022-10-13T06:08:51.051Z,9.40
2022-10-13T06:10:52.900Z,9.30
2022-10-13T06:12:54.680Z,10.20
2022-10-13T06:14:56.471Z,10.15
2022-10-13T06:16:58.136Z,10.55
2022-10-13T06:19:07.123Z,10.32
2022-10-13T06:21:08.844Z,9.88
2022-10-13T06:23:10.629Z,10.40
2022-10-13T06:25:12.320Z,10.13
2022-10-13T06:27:14.312Z,10.00
2022-10-13T06:29:15.999Z,10.07
2022-10-13T06:31:17.792Z,9.95
2022-10-13T06:33:20.862Z,9.65
2022-10-13T06:35:23.748Z,9.95
2022-10-13T06:37:27.493Z,10.55
2022-10-13T06:39:29.318Z,10.65
2022-10-13T06:41:30.943Z,9.65
2022-10-13T06:43:39.906Z,9.15
2022-10-13T06:45:41.985Z,9.32
2022-10-13T06:47:44.098Z,9.07
2022-10-13T06:49:45.860Z,9.88
2022-10-13T06:51:47.547Z,9.18
2022-10-13T06:53:49.344Z,9.80
2022-10-13T06:55:52.586Z,10.43
2022-10-13T06:57:54.398Z,9.90
2022-10-13T06:59:56.163Z,9.35
2022-10-13T07:01:57.894Z,9.82
2022-10-13T07:03:59.617Z,10.10
2022-10-13T07:06:05.987Z,10.13
2022-10-13T07:08:07.618Z,10.60
2022-10-13T07:10:10.281Z,10.43
2022-10-13T07:12:13.676Z,10.43
2022-10-13T07:14:15.352Z,9.70
2022-10-13T07:16:17.083Z,11.00
2022-10-13T07:18:18.766Z,10.82
2022-10-13T07:20:21.784Z,10.32
2022-10-13T07:22:23.405Z,10.65
2022-10-13T07:24:25.657Z,10.48
2022-10-13T07:26:27.369Z,10.55
2022-10-13T07:28:29.296Z,9.93
2022-10-13T07:30:31.001Z,11.05
2022-10-13T07:32:32.943Z,10.40
2022-10-13T07:34:34.698Z,9.98
2022-10-13T07:36:37.856Z,9.85
2022-10-13T07:38:40.299Z,9.60
2022-10-13T07:40:41.960Z,10.10
2022-10-13T07:42:43.561Z,10.95
2022-10-13T07:44:45.272Z,10.05
2022-10-13T07:46:46.902Z,9.70
2022-10-13T07:48:48.707Z,10.13
2022-10-13T07:50:50.456Z,9.25
2022-10-13T07:52:52.108Z,10.82
2022-10-13T07:54:54.170Z,9.27
2022-10-13T07:56:56.258Z,9.77
2022-10-13T07:59:09.753Z,9.70
2022-10-13T08:01:12.799Z,9.38
2022-10-13T08:03:14.463Z,9.77
2022-10-13T08:05:16.244Z,9.80
2022-10-13T08:07:18.256Z,10.75
2022-10-13T08:09:20.229Z,10.95
2022-10-13T08:11:21.909Z,9.63
2022-10-13T08:13:24.469Z,10.75
2022-10-13T08:15:26.116Z,10.23
2022-10-13T08:17:27.823Z,10.32
2022-10-13T08:19:29.509Z,9.73
2022-10-13T08:23:52.800Z,8.43
2022-10-13T08:25:54.568Z,9.13
2022-10-13T08:28:00.294Z,8.93
2022-10-13T08:30:02.385Z,8.93
2022-10-13T08:32:04.259Z,8.98
2022-10-13T08:34:05.894Z,8.50
2022-10-13T08:36:08.790Z,8.23
2022-10-13T08:38:10.618Z,8.70
2022-10-13T08:40:17.676Z,9.10
2022-10-13T08:42:22.451Z,8.50
2022-10-13T08:45:21.779Z,8.10
2022-10-13T08:47:08.408Z,8.48
2022-10-13T08:49:18.233Z,8.35
2022-10-13T08:51:20.384Z,8.48
2022-10-13T08:53:29.696Z,7.72
2022-10-13T08:56:13.115Z,8.02
2022-10-13T08:58:17.295Z,7.80
2022-10-13T09:00:19.005Z,8.27
2022-10-13T09:02:31.078Z,9.40
2022-10-13T09:04:41.147Z,8.98
2022-10-13T09:07:07.967Z,9.18
2022-10-13T09:09:16.848Z,9.30
2022-10-13T09:11:18.760Z,9.38
2022-10-13T09:13:20.822Z,8.82
2022-10-13T09:15:22.511Z,8.05
2022-10-13T09:17:28.995Z,8.10
2022-10-13T09:19:36.611Z,8.95
2022-10-13T09:21:38.531Z,9.27
2022-10-13T09:23:41.954Z,9.85
2022-10-13T09:25:49.425Z,9.23
2022-10-13T09:27:53.712Z,9.20
2022-10-13T09:29:55.343Z,9.27
2022-10-13T09:32:20.344Z,10.35
2022-10-13T09:34:24.184Z,8.85
2022-10-13T09:36:25.894Z,9.13
2022-10-13T09:38:28.195Z,9.48
2022-10-13T09:40:32.462Z,8.60
2022-10-13T09:42:34.283Z,9.35
2022-10-13T09:44:36.014Z,10.10
2022-10-13T09:46:51.738Z,9.77
2022-10-13T09:49:19.257Z,9.23
2022-10-13T09:51:42.895Z,9.32
2022-10-13T09:53:47.650Z,8.98
2022-10-13T09:55:49.769Z,9.20
2022-10-13T09:57:55.469Z,8.40
2022-10-13T10:00:21.516Z,9.07
2022-10-13T10:02:45.671Z,8.50
2022-10-13T10:04:47.515Z,8.70
2022-10-13T10:06:49.176Z,9.10
2022-10-13T10:09:33.275Z,9.38
2022-10-13T10:11:43.490Z,9.18
2022-10-13T10:13:45.177Z,9.45
2022-10-13T10:15:55.952Z,9.65
2022-10-13T10:20:41.067Z,10.57
2022-10-13T10:23:08.083Z,9.27
2022-10-13T10:25:40.345Z,10.13
2022-10-13T10:27:59.751Z,9.68
2022-10-13T10:30:05.964Z,10.15
2022-10-13T10:32:25.900Z,9.25
2022-10-13T10:34:35.024Z,10.38
2022-10-13T10:36:53.264Z,10.90
2022-10-13T10:39:31.049Z,9.25
2022-10-13T10:41:47.824Z,9.00
2022-10-13T10:44:11.359Z,9.85
2022-10-13T10:46:21.615Z,10.95
2022-10-13T10:48:27.072Z,10.93
2022-10-13T10:50:30.929Z,10.50
2022-10-13T10:52:56.528Z,10.00
2022-10-13T10:55:18.001Z,10.32
2022-10-13T10:57:28.542Z,11.15
2022-10-13T10:59:36.315Z,10.50
2022-10-13T11:01:42.726Z,10.93
2022-10-13T11:03:58.486Z,9.73
2022-10-13T11:06:00.133Z,9.93
2022-10-13T11:08:01.829Z,11.40
2022-10-13T11:10:27.460Z,10.48
2022-10-13T11:12:50.639Z,9.07
2022-10-13T11:14:55.091Z,9.60
2022-10-13T11:17:03.624Z,9.63
2022-10-13T11:19:23.657Z,8.75
2022-10-13T11:21:26.287Z,9.03
2022-10-13T11:23:32.898Z,9.68
2022-10-13T11:25:41.975Z,8.63
2022-10-13T11:27:44.321Z,9.32
2022-10-13T11:29:57.969Z,10.68
2022-10-13T11:31:59.801Z,10.02
2022-10-13T11:34:02.189Z,9.48
2022-10-13T11:36:28.381Z,9.82
2022-10-13T11:38:37.116Z,10.02
2022-10-13T11:40:47.808Z,9.18
2022-10-13T11:43:27.701Z,9.75
2022-10-13T11:45:58.365Z,8.85
2022-10-13T11:48:21.501Z,8.10
2022-10-13T11:50:52.212Z,10.80
2022-10-13T11:53:18.750Z,9.75
2022-10-13T11:55:31.003Z,10.43
2022-10-13T11:57:33.021Z,9.32
2022-10-13T11:59:37.729Z,8.95
2022-10-13T12:01:44.336Z,8.18
2022-10-13T12:03:47.601Z,7.38
2022-10-13T12:05:51.944Z,7.78
2022-10-13T12:07:57.468Z,6.60
2022-10-13T12:10:28.961Z,6.25
2022-10-13T12:12:32.387Z,6.85
2022-10-13T12:14:45.801Z,7.47
2022-10-13T12:16:57.860Z,6.70
2022-10-13T12:19:26.117Z,6.68
2022-10-13T12:21:28.928Z,5.70
2022-10-13T12:23:32.641Z,5.90
2022-10-13T12:25:34.330Z,5.53
2022-10-13T12:27:47.339Z,6.10
2022-10-13T12:29:49.007Z,5.53
2022-10-13T12:31:51.937Z,4.95
2022-10-13T12:33:59.015Z,5.82
2022-10-13T12:36:17.061Z,5.20
2022-10-13T12:38:21.100Z,4.43
2022-10-13T12:40:27.175Z,4.72
2022-10-13T12:42:34.870Z,4.25
2022-10-13T12:44:37.030Z,4.85
2022-10-13T12:46:43.008Z,5.07
2022-10-13T12:48:45.275Z,5.35
2022-10-13T12:50:47.009Z,4.47
2022-10-13T12:52:50.553Z,4.25
2022-10-13T12:54:57.871Z,4.35
2022-10-13T12:57:04.247Z,4.68
2022-10-13T12:59:25.797Z,4.45
2022-10-13T13:01:30.938Z,5.40
2022-10-13T13:03:32.965Z,4.93
2022-10-13T13:05:40.811Z,4.80
2022-10-13T13:07:52.675Z,4.75
2022-10-13T13:10:19.181Z,4.70
2022-10-13T13:12:23.717Z,4.32
2022-10-13T13:14:38.581Z,5.00
2022-10-13T13:16:40.320Z,3.95
2022-10-13T13:18:44.752Z,3.42
2022-10-13T13:20:46.423Z,2.97
2022-10-13T13:22:48.206Z,2.60
2022-10-13T13:24:51.186Z,3.22
2022-10-13T13:26:53.478Z,2.55
2022-10-13T13:28:56.441Z,3.05
2022-10-13T13:30:58.750Z,2.58
2022-10-13T13:33:00.456Z,2.90
2022-10-13T13:35:02.128Z,2.60
2022-10-13T13:37:03.740Z,2.67
2022-10-13T13:39:16.381Z,2.72
2022-10-13T13:41:18.403Z,2.97
2022-10-13T13:43:20.126Z,3.95
2022-10-13T13:45:25.000Z,4.18
2022-10-13T13:47:28.999Z,4.32
2022-10-13T13:49:30.759Z,3.95
2022-10-13T13:51:32.444Z,3.90
2022-10-13T13:53:34.064Z,4.18
2022-10-13T13:55:35.918Z,4.10
2022-10-13T13:57:37.578Z,3.78
2022-10-13T13:59:40.768Z,3.60
2022-10-13T14:01:42.462Z,3.53
2022-10-13T14:03:44.190Z,3.55
2022-10-13T14:05:45.842Z,3.67
2022-10-13T14:07:47.467Z,3.55
2022-10-13T14:09:49.155Z,2.88
2022-10-13T14:11:50.871Z,3.92
2022-10-13T14:13:52.446Z,3.22
2022-10-13T14:16:01.428Z,3.47
2022-10-13T14:18:03.088Z,3.75
2022-10-13T14:20:05.234Z,4.03
2022-10-13T14:22:09.480Z,3.42
2022-10-13T14:24:11.687Z,3.80
2022-10-13T14:26:14.292Z,4.35
2022-10-13T14:28:18.207Z,3.67
2022-10-13T14:30:20.320Z,2.60
2022-10-13T14:32:22.484Z,2.30
2022-10-13T14:34:24.689Z,2.40
2022-10-13T14:36:26.369Z,2.45
2022-10-13T14:38:28.359Z,2.80
2022-10-13T14:40:30.002Z,3.03
2022-10-13T14:42:31.665Z,3.35
2022-10-13T14:44:34.474Z,3.03
2022-10-13T14:46:36.096Z,2.92
2022-10-13T14:48:37.900Z,3.15
2022-10-13T14:50:39.555Z,2.10
2022-10-13T14:52:41.164Z,2.58
2022-10-13T14:54:44.982Z,2.85
2022-10-13T14:56:46.923Z,3.00
2022-10-13T14:58:50.087Z,2.70
2022-10-13T15:00:53.617Z,3.58
2022-10-13T15:02:55.242Z,3.45
2022-10-13T15:04:57.934Z,2.70
2022-10-13T15:06:59.657Z,2.45
2022-10-13T15:09:12.951Z,2.20
2022-10-13T15:11:15.465Z,3.38
2022-10-13T15:13:17.165Z,2.65
2022-10-13T15:15:19.830Z,2.22
2022-10-13T15:17:21.475Z,2.50
2022-10-13T15:19:23.214Z,3.25
2022-10-13T15:21:25.475Z,2.45
2022-10-13T15:23:27.166Z,2.50
2022-10-13T15:25:28.773Z,2.45
2022-10-13T15:27:30.482Z,2.88
2022-10-13T15:29:32.161Z,1.98
2022-10-13T15:31:33.849Z,2.20
2022-10-13T15:33:35.723Z,2.45
2022-10-13T15:35:37.360Z,2.08
2022-10-13T15:37:39.023Z,1.63
2022-10-13T15:39:40.624Z,1.70
2022-10-13T15:41:42.456Z,1.38
2022-10-13T15:43:44.347Z,2.08
2022-10-13T15:45:55.550Z,1.40
2022-10-13T15:47:57.808Z,1.77
2022-10-13T15:49:59.420Z,1.27
2022-10-13T15:52:01.060Z,1.40
2022-10-13T15:54:02.731Z,1.15
2022-10-13T15:56:04.444Z,1.45
2022-10-13T15:58:10.086Z,1.08
2022-10-13T16:00:16.041Z,1.20
2022-10-13T16:02:18.010Z,1.10
2022-10-13T16:04:19.941Z,1.42
2022-10-13T16:06:22.536Z,1.02
2022-10-13T16:08:24.189Z,1.10
2022-10-13T16:10:39.427Z,1.50
2022-10-13T16:12:46.844Z,0.85
2022-10-13T16:14:51.570Z,1.00
2022-10-13T16:16:53.270Z,1.20
2022-10-13T16:18:55.040Z,1.10
2022-10-13T16:20:57.061Z,1.30
2022-10-13T16:22:58.784Z,1.40
2022-10-13T16:25:00.437Z,1.23
2022-10-13T16:27:02.137Z,1.30
2022-10-13T16:29:06.922Z,1.20
2022-10-13T16:31:13.996Z,1.42
2022-10-13T16:33:15.680Z,1.45
2022-10-13T16:35:17.535Z,1.65
2022-10-13T16:37:19.731Z,1.38
2022-10-13T16:39:23.866Z,1.42
2022-10-13T16:41:25.876Z,0.93
2022-10-13T16:43:29.455Z,0.80
2022-10-13T16:45:55.071Z,1.10
2022-10-13T16:47:53.018Z,1.20
2022-10-13T16:49:54.687Z,1.17
2022-10-13T16:51:56.428Z,1.10
2022-10-13T16:54:03.862Z,1.58
2022-10-13T16:56:07.935Z,1.38
2022-10-13T16:58:10.088Z,1.45
2022-10-13T17:00:12.617Z,1.67
2022-10-13T17:02:15.247Z,1.10
2022-10-13T17:04:21.883Z,0.90
2022-10-13T17:06:26.898Z,1.00
2022-10-13T17:08:30.198Z,0.90
2022-10-13T17:10:31.865Z,1.20
2022-10-13T17:12:33.939Z,1.25
2022-10-13T17:14:35.652Z,1.20
2022-10-13T17:16:37.310Z,1.42
2022-10-13T17:18:38.945Z,1.25
2022-10-13T17:20:41.274Z,1.60
2022-10-13T17:22:42.916Z,2.15
2022-10-13T17:24:48.584Z,1.40
2022-10-13T17:26:50.349Z,2.53
2022-10-13T17:28:52.179Z,2.10
2022-10-13T17:31:02.291Z,2.03
2022-10-13T17:33:04.625Z,2.10
2022-10-13T17:35:07.675Z,2.30
2022-10-13T17:37:09.367Z,1.90
2022-10-13T17:39:14.337Z,2.25
2022-10-13T17:41:16.687Z,2.28
2022-10-13T17:43:18.379Z,2.30
2022-10-13T17:45:20.066Z,2.30
2022-10-13T17:47:21.866Z,2.63
2022-10-13T17:49:24.286Z,3.53
2022-10-13T17:51:26.002Z,3.60
2022-10-13T17:53:27.663Z,4.57
2022-10-13T17:55:30.781Z,4.97
2022-10-13T17:57:32.421Z,5.22
2022-10-13T17:59:34.081Z,5.30
2022-10-13T18:01:36.066Z,5.55
2022-10-13T18:03:39.070Z,5.50
2022-10-13T18:05:43.574Z,3.33
2022-10-13T18:07:45.202Z,1.90
2022-10-13T18:09:46.832Z,1.85
2022-10-13T18:11:50.943Z,1.63
2022-10-13T18:13:52.923Z,1.65
2022-10-13T18:15:54.620Z,1.35
2022-10-13T18:17:56.340Z,1.80
2022-10-13T18:19:58.685Z,1.60
2022-10-13T18:22:00.286Z,1.70
2022-10-13T18:24:02.579Z,2.33
2022-10-13T18:26:07.247Z,2.10
2022-10-13T18:28:08.884Z,1.80
2022-10-13T18:30:11.080Z,2.05
2022-10-13T18:32:12.729Z,1.38
2022-10-13T18:34:17.034Z,1.70
2022-10-13T18:36:23.437Z,1.45
2022-10-13T18:38:26.417Z,1.42
2022-10-13T18:40:28.610Z,1.73
2022-10-13T18:42:30.556Z,1.73
2022-10-13T18:44:32.179Z,1.67
2022-10-13T18:46:35.961Z,1.70
2022-10-13T18:48:37.681Z,2.10
2022-10-13T18:50:39.293Z,2.30
2022-10-13T18:52:40.891Z,2.50
2022-10-13T18:54:42.556Z,2.72
2022-10-13T18:56:44.230Z,3.10
2022-10-13T18:58:46.416Z,2.50
2022-10-13T19:00:48.084Z,2.72
2022-10-13T19:02:51.847Z,2.90
2022-10-13T19:04:53.534Z,2.33
2022-10-13T19:06:55.176Z,2.45
2022-10-13T19:09:09.498Z,2.95
2022-10-13T19:11:16.217Z,2.58
2022-10-13T19:13:18.062Z,3.03
2022-10-13T19:15:19.681Z,3.22
2022-10-13T19:17:21.539Z,3.92
2022-10-13T19:19:23.448Z,3.35
2022-10-13T19:21:25.215Z,3.60
2022-10-13T19:23:26.932Z,3.30
2022-10-13T19:25:28.615Z,3.58
2022-10-13T19:27:30.300Z,4.03
2022-10-13T19:29:32.848Z,3.55
2022-10-13T19:31:36.187Z,2.90
2022-10-13T19:33:44.275Z,3.50
2022-10-13T19:35:49.104Z,3.20
2022-10-13T19:37:50.848Z,3.70
2022-10-13T19:39:52.470Z,3.55
2022-10-13T19:41:56.559Z,3.95
2022-10-13T19:43:59.283Z,3.67
2022-10-13T19:46:01.246Z,4.07
2022-10-13T19:48:02.930Z,4.35
2022-10-13T19:50:04.825Z,4.38
2022-10-13T19:52:06.564Z,4.07
2022-10-13T19:54:08.723Z,4.35
2022-10-13T19:56:23.024Z,4.15
2022-10-13T19:58:24.673Z,4.25
2022-10-13T20:00:26.384Z,3.63
2022-10-13T20:02:28.023Z,4.50
2022-10-13T20:04:29.751Z,4.53
2022-10-13T20:06:31.396Z,4.22
2022-10-13T20:08:33.402Z,4.65
2022-10-13T20:10:40.963Z,4.47
2022-10-13T20:12:42.654Z,4.72
2022-10-13T20:14:44.288Z,4.30
2022-10-13T20:16:45.976Z,4.75
2022-10-13T20:18:52.727Z,5.18
2022-10-13T20:20:54.383Z,4.75
2022-10-13T20:22:56.044Z,4.22
2022-10-13T20:24:57.897Z,5.32
2022-10-13T20:26:59.527Z,4.93
2022-10-13T20:29:07.592Z,5.32
2022-10-13T20:31:10.734Z,5.03
2022-10-13T20:33:12.386Z,4.90
2022-10-13T20:35:14.140Z,4.95
2022-10-13T20:37:16.203Z,4.93
2022-10-13T20:39:17.925Z,4.90
2022-10-13T20:41:22.491Z,4.25
2022-10-13T20:43:25.912Z,4.80
2022-10-13T20:45:27.639Z,4.57
2022-10-13T20:47:29.253Z,4.40
2022-10-13T20:49:30.945Z,5.22
2022-10-13T20:51:32.597Z,5.07
2022-10-13T20:53:35.977Z,5.03
2022-10-13T20:55:41.757Z,4.80
2022-10-13T20:57:43.620Z,5.53
2022-10-13T20:59:45.280Z,4.82
2022-10-13T21:01:46.942Z,5.30
2022-10-13T21:03:54.933Z,5.80
2022-10-13T21:05:57.283Z,5.95
2022-10-13T21:07:58.970Z,5.72
2022-10-13T21:10:00.569Z,5.95
2022-10-13T21:12:02.211Z,6.00
2022-10-13T21:14:06.932Z,5.90
2022-10-13T21:16:11.324Z,6.10
2022-10-13T21:18:13.962Z,6.07
2022-10-13T21:20:15.710Z,6.18
2022-10-13T21:22:17.359Z,6.32
2022-10-13T21:24:18.964Z,6.28
2022-10-13T21:26:22.473Z,6.18
2022-10-13T21:28:24.266Z,6.65
2022-10-13T21:30:26.893Z,7.15
2022-10-13T21:32:30.296Z,6.50
2022-10-13T21:34:31.962Z,7.53
2022-10-13T21:36:34.244Z,8.00
2022-10-13T21:38:36.214Z,8.25
2022-10-13T21:40:38.177Z,7.88
2022-10-13T21:42:39.965Z,8.88
2022-10-13T21:44:41.768Z,7.40
2022-10-13T21:46:43.480Z,7.80
2022-10-13T21:48:46.655Z,8.40
2022-10-13T21:50:48.336Z,6.70
2022-10-13T21:52:49.978Z,7.75
2022-10-13T21:54:52.517Z,7.78
2022-10-13T21:56:54.143Z,8.05
2022-10-13T21:58:56.198Z,8.07
2022-10-13T22:01:00.458Z,7.47
2022-10-13T22:03:02.186Z,8.02
2022-10-13T22:05:04.163Z,7.07
2022-10-13T22:07:06.225Z,7.80
2022-10-13T22:09:12.264Z,7.82
2022-10-13T22:11:15.694Z,8.50
2022-10-13T22:13:17.323Z,8.75
2022-10-13T22:15:18.936Z,8.00
2022-10-13T22:17:20.960Z,8.27
2022-10-13T22:19:23.139Z,7.97
2022-10-13T22:21:31.407Z,8.35
2022-10-13T22:23:33.110Z,8.32
2022-10-13T22:25:34.832Z,8.75
2022-10-13T22:27:36.464Z,8.77
2022-10-13T22:29:38.133Z,7.85
2022-10-13T22:31:39.807Z,8.02
2022-10-13T22:33:43.038Z,7.70
2022-10-13T22:35:46.757Z,8.30
2022-10-13T22:37:48.412Z,8.30
2022-10-13T22:39:51.777Z,7.32
2022-10-13T22:41:53.680Z,7.22
2022-10-13T22:43:58.083Z,7.68
2022-10-13T22:46:01.983Z,8.93
2022-10-13T22:48:03.875Z,9.32
2022-10-13T22:50:05.878Z,9.52
2022-10-13T22:52:07.527Z,9.32
2022-10-13T22:54:09.953Z,9.93
2022-10-13T22:56:14.754Z,9.77
2022-10-13T22:58:16.400Z,8.70
2022-10-13T23:00:18.272Z,8.88
2022-10-13T23:02:19.931Z,8.93
2022-10-13T23:04:21.576Z,10.30
2022-10-13T23:06:27.508Z,9.52
2022-10-13T23:08:29.448Z,9.40
2022-10-13T23:10:31.055Z,9.63
2022-10-13T23:12:32.793Z,9.52
2022-10-13T23:14:34.446Z,10.35
2022-10-13T23:16:36.471Z,9.55
2022-10-13T23:18:39.290Z,9.57
2022-10-13T23:20:42.270Z,8.98
2022-10-13T23:22:43.920Z,9.88
2022-10-13T23:24:45.585Z,10.88
2022-10-13T23:26:47.289Z,10.35
2022-10-13T23:28:48.956Z,9.68
2022-10-13T23:30:50.690Z,9.43
2022-10-13T23:32:54.719Z,9.48
2022-10-13T23:34:56.406Z,9.65
2022-10-13T23:36:58.076Z,9.93
2022-10-13T23:39:06.979Z,9.57
2022-10-13T23:41:11.474Z,10.90
2022-10-13T23:43:13.145Z,9.93
2022-10-13T23:45:14.802Z,10.63
2022-10-13T23:47:16.513Z,9.63
2022-10-13T23:49:18.159Z,10.18
2022-10-13T23:51:23.186Z,9.55
2022-10-13T23:53:24.889Z,8.82
2022-10-13T23:55:26.624Z,8.77
2022-10-13T23:57:29.855Z,8.63
2022-10-13T23:59:31.607Z,8.55
